sensor_id;sensor_type;location;lat;lon;timestamp;temperature;humidity
418;DHT22;49;48.530;9.200;2024-02-23T00:01:43;10.60;99.90
418;DHT22;49;48.530;9.200;2024-02-23T00:04:11;11.00;99.90
418;DHT22;49;48.530;9.200;2024-02-23T00:06:38;10.00;99.90
418;DHT22;49;48.530;9.200;2024-02-23T00:09:05;10.10;99.90
418;DHT22;49;48.530;9.200;2024-02-23T00:11:32;10.30;99.90
418;DHT22;49;48.530;9.200;2024-02-23T00:14:05;10.50;99.90
418;DHT22;49;48.530;9.200;2024-02-23T00:16:39;10.70;99.90
418;DHT22;49;48.530;9.200;2024-02-23T00:19:07;10.60;99.90
418;DHT22;49;48.530;9.200;2024-02-23T00:21:35;10.50;99.90
418;DHT22;49;48.530;9.200;2024-02-23T00:24:03;10.40;99.90
418;DHT22;49;48.530;9.200;2024-02-23T00:26:30;10.40;99.90
418;DHT22;49;48.530;9.200;2024-02-23T00:28:57;10.70;98.30
418;DHT22;49;48.530;9.200;2024-02-23T00:31:25;10.20;99.30
418;DHT22;49;48.530;9.200;2024-02-23T00:33:53;9.70;99.90
418;DHT22;49;48.530;9.200;2024-02-23T00:36:23;9.90;99.90
418;DHT22;49;48.530;9.200;2024-02-23T00:38:50;10.10;99.90
418;DHT22;49;48.530;9.200;2024-02-23T00:41:17;9.80;99.90
418;DHT22;49;48.530;9.200;2024-02-23T00:43:44;9.70;99.90
418;DHT22;49;48.530;9.200;2024-02-23T00:46:13;9.70;99.90
418;DHT22;49;48.530;9.200;2024-02-23T00:48:42;10.10;99.90
418;DHT22;49;48.530;9.200;2024-02-23T00:51:11;10.60;99.90
418;DHT22;49;48.530;9.200;2024-02-23T00:53:39;10.40;90.80
418;DHT22;49;48.530;9.200;2024-02-23T00:56:07;10.40;94.60
418;DHT22;49;48.530;9.200;2024-02-23T00:58:34;10.30;87.70
418;DHT22;49;48.530;9.200;2024-02-23T01:01:01;10.40;93.00
418;DHT22;49;48.530;9.200;2024-02-23T01:03:28;10.20;96.00
418;DHT22;49;48.530;9.200;2024-02-23T01:05:59;10.40;96.00
418;DHT22;49;48.530;9.200;2024-02-23T01:08:29;10.00;99.90
418;DHT22;49;48.530;9.200;2024-02-23T01:10:59;9.80;90.00
418;DHT22;49;48.530;9.200;2024-02-23T01:13:26;9.40;95.50
418;DHT22;49;48.530;9.200;2024-02-23T01:15:53;9.40;99.90
418;DHT22;49;48.530;9.200;2024-02-23T01:18:20;10.10;99.90
418;DHT22;49;48.530;9.200;2024-02-23T01:20:47;10.30;99.90
418;DHT22;49;48.530;9.200;2024-02-23T01:23:15;10.30;76.60
418;DHT22;49;48.530;9.200;2024-02-23T01:25:49;10.50;99.90
418;DHT22;49;48.530;9.200;2024-02-23T01:28:18;10.40;65.30
418;DHT22;49;48.530;9.200;2024-02-23T01:30:45;9.90;76.60
418;DHT22;49;48.530;9.200;2024-02-23T01:33:13;9.90;92.40
418;DHT22;49;48.530;9.200;2024-02-23T01:35:42;9.90;78.10
418;DHT22;49;48.530;9.200;2024-02-23T01:38:10;9.80;90.60
418;DHT22;49;48.530;9.200;2024-02-23T01:40:44;10.10;98.60
418;DHT22;49;48.530;9.200;2024-02-23T01:43:14;10.30;99.90
418;DHT22;49;48.530;9.200;2024-02-23T01:45:41;10.50;67.30
418;DHT22;49;48.530;9.200;2024-02-23T01:48:11;10.10;98.00
418;DHT22;49;48.530;9.200;2024-02-23T01:50:38;9.80;75.00
418;DHT22;49;48.530;9.200;2024-02-23T01:53:06;9.70;95.60
418;DHT22;49;48.530;9.200;2024-02-23T01:55:34;9.80;90.50
418;DHT22;49;48.530;9.200;2024-02-23T01:58:01;10.50;90.80
418;DHT22;49;48.530;9.200;2024-02-23T02:00:34;10.40;71.90
418;DHT22;49;48.530;9.200;2024-02-23T02:03:03;10.20;65.60
418;DHT22;49;48.530;9.200;2024-02-23T02:05:35;10.10;68.10
418;DHT22;49;48.530;9.200;2024-02-23T02:08:05;10.10;91.30
418;DHT22;49;48.530;9.200;2024-02-23T02:10:33;10.10;74.60
418;DHT22;49;48.530;9.200;2024-02-23T02:13:04;10.00;90.80
418;DHT22;49;48.530;9.200;2024-02-23T02:15:36;10.30;65.20
418;DHT22;49;48.530;9.200;2024-02-23T02:18:06;10.00;64.30
418;DHT22;49;48.530;9.200;2024-02-23T02:20:33;10.50;68.70
418;DHT22;49;48.530;9.200;2024-02-23T02:23:02;10.70;58.60
418;DHT22;49;48.530;9.200;2024-02-23T02:25:29;10.50;59.60
418;DHT22;49;48.530;9.200;2024-02-23T02:27:57;10.40;51.90
418;DHT22;49;48.530;9.200;2024-02-23T02:30:26;10.50;54.30
418;DHT22;49;48.530;9.200;2024-02-23T02:32:56;10.80;50.30
418;DHT22;49;48.530;9.200;2024-02-23T02:35:24;10.20;49.70
418;DHT22;49;48.530;9.200;2024-02-23T02:37:51;10.20;54.30
418;DHT22;49;48.530;9.200;2024-02-23T02:40:18;10.60;64.10
418;DHT22;49;48.530;9.200;2024-02-23T02:42:46;10.70;56.10
418;DHT22;49;48.530;9.200;2024-02-23T02:45:13;11.20;66.70
418;DHT22;49;48.530;9.200;2024-02-23T02:47:40;10.40;59.50
418;DHT22;49;48.530;9.200;2024-02-23T02:50:09;10.50;60.50
418;DHT22;49;48.530;9.200;2024-02-23T02:52:36;10.70;60.20
418;DHT22;49;48.530;9.200;2024-02-23T02:55:04;11.10;55.80
418;DHT22;49;48.530;9.200;2024-02-23T02:57:32;11.00;41.90
418;DHT22;49;48.530;9.200;2024-02-23T02:59:59;10.90;39.80
418;DHT22;49;48.530;9.200;2024-02-23T03:02:26;10.80;53.50
418;DHT22;49;48.530;9.200;2024-02-23T03:04:53;10.70;94.90
418;DHT22;49;48.530;9.200;2024-02-23T03:07:22;10.60;43.10
418;DHT22;49;48.530;9.200;2024-02-23T03:09:49;9.80;57.30
418;DHT22;49;48.530;9.200;2024-02-23T03:12:17;9.70;55.60
418;DHT22;49;48.530;9.200;2024-02-23T03:14:44;9.80;73.30
418;DHT22;49;48.530;9.200;2024-02-23T03:17:11;10.10;71.30
418;DHT22;49;48.530;9.200;2024-02-23T03:19:38;10.00;47.00
418;DHT22;49;48.530;9.200;2024-02-23T03:22:06;9.80;59.90
418;DHT22;49;48.530;9.200;2024-02-23T03:24:37;9.70;59.40
418;DHT22;49;48.530;9.200;2024-02-23T03:27:04;10.20;55.60
418;DHT22;49;48.530;9.200;2024-02-23T03:29:31;10.90;45.20
418;DHT22;49;48.530;9.200;2024-02-23T03:31:59;10.40;38.50
418;DHT22;49;48.530;9.200;2024-02-23T03:34:27;10.10;54.70
418;DHT22;49;48.530;9.200;2024-02-23T03:36:53;10.90;41.60
418;DHT22;49;48.530;9.200;2024-02-23T03:39:24;11.00;36.60
418;DHT22;49;48.530;9.200;2024-02-23T03:41:52;11.20;39.60
418;DHT22;49;48.530;9.200;2024-02-23T03:44:20;11.40;27.70
418;DHT22;49;48.530;9.200;2024-02-23T03:46:47;11.20;50.60
418;DHT22;49;48.530;9.200;2024-02-23T03:49:14;11.20;36.50
418;DHT22;49;48.530;9.200;2024-02-23T03:51:42;10.90;33.20
418;DHT22;49;48.530;9.200;2024-02-23T03:54:09;10.70;34.20
418;DHT22;49;48.530;9.200;2024-02-23T03:56:40;10.60;28.10
418;DHT22;49;48.530;9.200;2024-02-23T03:59:09;10.80;30.40
418;DHT22;49;48.530;9.200;2024-02-23T04:01:37;11.00;33.10
418;DHT22;49;48.530;9.200;2024-02-23T04:04:05;11.20;41.20
418;DHT22;49;48.530;9.200;2024-02-23T04:06:33;11.50;36.80
418;DHT22;49;48.530;9.200;2024-02-23T04:09:00;11.80;29.90
418;DHT22;49;48.530;9.200;2024-02-23T04:11:30;11.40;36.80
418;DHT22;49;48.530;9.200;2024-02-23T04:13:57;11.20;48.40
418;DHT22;49;48.530;9.200;2024-02-23T04:16:29;11.50;52.00
418;DHT22;49;48.530;9.200;2024-02-23T04:18:56;11.50;41.00
418;DHT22;49;48.530;9.200;2024-02-23T04:21:25;11.40;34.80
418;DHT22;49;48.530;9.200;2024-02-23T04:23:56;11.70;49.40
418;DHT22;49;48.530;9.200;2024-02-23T04:26:23;12.00;28.80
418;DHT22;49;48.530;9.200;2024-02-23T04:28:50;11.90;32.40
418;DHT22;49;48.530;9.200;2024-02-23T04:31:20;12.20;32.40
418;DHT22;49;48.530;9.200;2024-02-23T04:33:49;12.30;32.00
418;DHT22;49;48.530;9.200;2024-02-23T04:36:19;12.30;23.60
418;DHT22;49;48.530;9.200;2024-02-23T04:38:47;12.20;33.40
418;DHT22;49;48.530;9.200;2024-02-23T04:41:20;12.30;27.10
418;DHT22;49;48.530;9.200;2024-02-23T04:43:50;11.70;20.40
418;DHT22;49;48.530;9.200;2024-02-23T04:46:32;11.50;25.60
418;DHT22;49;48.530;9.200;2024-02-23T04:49:02;11.70;37.00
418;DHT22;49;48.530;9.200;2024-02-23T04:51:29;12.10;31.20
418;DHT22;49;48.530;9.200;2024-02-23T04:53:57;12.30;28.80
418;DHT22;49;48.530;9.200;2024-02-23T04:56:25;12.20;21.90
418;DHT22;49;48.530;9.200;2024-02-23T04:58:52;12.30;22.90
418;DHT22;49;48.530;9.200;2024-02-23T05:01:20;12.30;21.10
418;DHT22;49;48.530;9.200;2024-02-23T05:03:47;12.40;20.00
418;DHT22;49;48.530;9.200;2024-02-23T05:06:16;12.40;31.60
418;DHT22;49;48.530;9.200;2024-02-23T05:08:44;12.30;19.90
418;DHT22;49;48.530;9.200;2024-02-23T05:11:14;12.30;16.40
418;DHT22;49;48.530;9.200;2024-02-23T05:13:41;12.10;17.70
418;DHT22;49;48.530;9.200;2024-02-23T05:16:09;11.80;17.20
418;DHT22;49;48.530;9.200;2024-02-23T05:18:36;11.70;17.70
418;DHT22;49;48.530;9.200;2024-02-23T05:21:06;11.50;18.10
418;DHT22;49;48.530;9.200;2024-02-23T05:23:35;11.50;28.70
418;DHT22;49;48.530;9.200;2024-02-23T05:26:03;11.50;19.90
418;DHT22;49;48.530;9.200;2024-02-23T05:28:30;11.60;27.30
418;DHT22;49;48.530;9.200;2024-02-23T05:30:58;11.70;28.90
418;DHT22;49;48.530;9.200;2024-02-23T05:33:25;11.90;24.20
418;DHT22;49;48.530;9.200;2024-02-23T05:35:51;12.00;26.70
418;DHT22;49;48.530;9.200;2024-02-23T05:38:19;12.20;19.70
418;DHT22;49;48.530;9.200;2024-02-23T05:40:48;12.00;22.20
418;DHT22;49;48.530;9.200;2024-02-23T05:43:16;11.80;18.30
418;DHT22;49;48.530;9.200;2024-02-23T05:45:46;12.00;23.40
418;DHT22;49;48.530;9.200;2024-02-23T05:48:13;12.10;20.80
418;DHT22;49;48.530;9.200;2024-02-23T05:50:41;12.40;25.30
418;DHT22;49;48.530;9.200;2024-02-23T05:53:09;12.60;26.90
418;DHT22;49;48.530;9.200;2024-02-23T05:55:37;12.50;18.80
418;DHT22;49;48.530;9.200;2024-02-23T05:58:07;12.60;19.80
418;DHT22;49;48.530;9.200;2024-02-23T06:00:35;12.20;16.00
418;DHT22;49;48.530;9.200;2024-02-23T06:03:06;12.00;15.80
418;DHT22;49;48.530;9.200;2024-02-23T06:05:35;11.90;20.00
418;DHT22;49;48.530;9.200;2024-02-23T06:08:02;12.20;25.20
418;DHT22;49;48.530;9.200;2024-02-23T06:10:30;12.10;24.40
418;DHT22;49;48.530;9.200;2024-02-23T06:12:58;12.40;18.30
418;DHT22;49;48.530;9.200;2024-02-23T06:15:27;12.30;16.20
418;DHT22;49;48.530;9.200;2024-02-23T06:17:56;12.30;25.90
418;DHT22;49;48.530;9.200;2024-02-23T06:20:33;12.40;27.20
418;DHT22;49;48.530;9.200;2024-02-23T06:23:01;12.40;16.90
418;DHT22;49;48.530;9.200;2024-02-23T06:25:28;12.20;18.60
418;DHT22;49;48.530;9.200;2024-02-23T06:27:55;12.50;19.80
418;DHT22;49;48.530;9.200;2024-02-23T06:30:22;12.40;22.30
418;DHT22;49;48.530;9.200;2024-02-23T06:32:52;12.60;22.20
418;DHT22;49;48.530;9.200;2024-02-23T06:35:20;12.30;20.70
418;DHT22;49;48.530;9.200;2024-02-23T06:37:48;12.50;24.70
418;DHT22;49;48.530;9.200;2024-02-23T06:40:16;12.50;23.60
418;DHT22;49;48.530;9.200;2024-02-23T06:42:45;12.40;20.60
418;DHT22;49;48.530;9.200;2024-02-23T06:45:15;12.30;21.20
418;DHT22;49;48.530;9.200;2024-02-23T06:47:53;11.90;19.20
418;DHT22;49;48.530;9.200;2024-02-23T06:50:23;11.80;17.60
418;DHT22;49;48.530;9.200;2024-02-23T06:52:50;11.70;19.90
418;DHT22;49;48.530;9.200;2024-02-23T06:55:22;11.80;19.70
418;DHT22;49;48.530;9.200;2024-02-23T06:58:03;12.10;24.40
418;DHT22;49;48.530;9.200;2024-02-23T07:00:32;12.20;14.30
418;DHT22;49;48.530;9.200;2024-02-23T07:03:03;12.40;19.70
418;DHT22;49;48.530;9.200;2024-02-23T07:05:30;12.70;19.00
418;DHT22;49;48.530;9.200;2024-02-23T07:07:57;12.90;23.00
418;DHT22;49;48.530;9.200;2024-02-23T07:10:26;13.00;20.10
418;DHT22;49;48.530;9.200;2024-02-23T07:12:56;12.70;19.80
418;DHT22;49;48.530;9.200;2024-02-23T07:15:37;12.50;13.10
418;DHT22;49;48.530;9.200;2024-02-23T07:18:11;12.30;18.10
418;DHT22;49;48.530;9.200;2024-02-23T07:20:41;12.20;21.70
418;DHT22;49;48.530;9.200;2024-02-23T07:23:22;12.40;18.20
418;DHT22;49;48.530;9.200;2024-02-23T07:26:03;12.30;14.60
418;DHT22;49;48.530;9.200;2024-02-23T07:28:31;11.90;14.40
418;DHT22;49;48.530;9.200;2024-02-23T07:31:02;12.00;12.90
418;DHT22;49;48.530;9.200;2024-02-23T07:33:42;11.70;17.10
418;DHT22;49;48.530;9.200;2024-02-23T07:36:14;12.10;15.30
418;DHT22;49;48.530;9.200;2024-02-23T07:38:43;12.00;14.70
418;DHT22;49;48.530;9.200;2024-02-23T07:41:15;12.10;12.50
418;DHT22;49;48.530;9.200;2024-02-23T07:43:45;12.00;14.60
418;DHT22;49;48.530;9.200;2024-02-23T07:46:17;12.50;14.70
418;DHT22;49;48.530;9.200;2024-02-23T07:49:22;12.50;14.40
418;DHT22;49;48.530;9.200;2024-02-23T07:52:04;12.40;13.90
418;DHT22;49;48.530;9.200;2024-02-23T07:54:34;12.20;12.60
418;DHT22;49;48.530;9.200;2024-02-23T07:57:02;12.20;12.30
418;DHT22;49;48.530;9.200;2024-02-23T07:59:35;12.00;12.40
418;DHT22;49;48.530;9.200;2024-02-23T08:02:08;12.40;12.70
418;DHT22;49;48.530;9.200;2024-02-23T08:17:42;12.90;19.40
418;DHT22;49;48.530;9.200;2024-02-23T08:20:11;12.60;9.30
418;DHT22;49;48.530;9.200;2024-02-23T08:22:39;12.40;9.50
418;DHT22;49;48.530;9.200;2024-02-23T08:25:08;11.90;10.00
418;DHT22;49;48.530;9.200;2024-02-23T08:27:36;11.80;12.30
418;DHT22;49;48.530;9.200;2024-02-23T08:30:04;11.90;11.20
418;DHT22;49;48.530;9.200;2024-02-23T08:32:32;11.90;11.60
418;DHT22;49;48.530;9.200;2024-02-23T08:35:06;12.30;11.40
418;DHT22;49;48.530;9.200;2024-02-23T08:37:33;12.60;9.80
418;DHT22;49;48.530;9.200;2024-02-23T08:40:06;12.50;14.30
418;DHT22;49;48.530;9.200;2024-02-23T08:42:41;12.60;11.80
418;DHT22;49;48.530;9.200;2024-02-23T08:45:10;12.90;13.10
418;DHT22;49;48.530;9.200;2024-02-23T08:47:41;12.40;11.20
418;DHT22;49;48.530;9.200;2024-02-23T08:50:13;12.20;12.60
418;DHT22;49;48.530;9.200;2024-02-23T08:52:54;12.40;7.70
418;DHT22;49;48.530;9.200;2024-02-23T08:55:35;12.60;8.00
418;DHT22;49;48.530;9.200;2024-02-23T08:58:16;12.70;10.90
418;DHT22;49;48.530;9.200;2024-02-23T09:00:57;12.60;6.90
418;DHT22;49;48.530;9.200;2024-02-23T09:03:38;12.30;8.80
418;DHT22;49;48.530;9.200;2024-02-23T09:06:25;12.30;16.00
418;DHT22;49;48.530;9.200;2024-02-23T09:09:02;12.40;7.10
418;DHT22;49;48.530;9.200;2024-02-23T09:11:31;12.00;7.90
418;DHT22;49;48.530;9.200;2024-02-23T09:14:04;12.20;7.90
418;DHT22;49;48.530;9.200;2024-02-23T09:16:49;12.50;7.90
418;DHT22;49;48.530;9.200;2024-02-23T09:19:30;12.80;8.10
418;DHT22;49;48.530;9.200;2024-02-23T09:22:02;12.70;8.30
418;DHT22;49;48.530;9.200;2024-02-23T09:24:31;12.00;11.10
418;DHT22;49;48.530;9.200;2024-02-23T09:26:59;12.20;7.90
418;DHT22;49;48.530;9.200;2024-02-23T09:29:27;12.20;10.40
418;DHT22;49;48.530;9.200;2024-02-23T09:31:56;12.40;9.70
418;DHT22;49;48.530;9.200;2024-02-23T09:34:25;12.30;7.70
418;DHT22;49;48.530;9.200;2024-02-23T09:36:55;12.50;14.70
418;DHT22;49;48.530;9.200;2024-02-23T09:39:30;12.80;10.40
418;DHT22;49;48.530;9.200;2024-02-23T09:41:57;12.50;8.90
418;DHT22;49;48.530;9.200;2024-02-23T09:44:27;12.40;8.20
418;DHT22;49;48.530;9.200;2024-02-23T09:47:00;12.10;7.80
418;DHT22;49;48.530;9.200;2024-02-23T09:49:34;12.20;5.90
418;DHT22;49;48.530;9.200;2024-02-23T09:52:05;12.20;6.40
418;DHT22;49;48.530;9.200;2024-02-23T09:54:37;12.80;6.80
418;DHT22;49;48.530;9.200;2024-02-23T09:57:07;12.60;5.30
418;DHT22;49;48.530;9.200;2024-02-23T09:59:35;12.00;6.30
418;DHT22;49;48.530;9.200;2024-02-23T10:02:02;12.30;6.50
418;DHT22;49;48.530;9.200;2024-02-23T10:04:34;12.60;6.50
418;DHT22;49;48.530;9.200;2024-02-23T10:07:02;13.00;9.30
418;DHT22;49;48.530;9.200;2024-02-23T10:09:30;13.00;4.50
418;DHT22;49;48.530;9.200;2024-02-23T10:12:00;12.90;6.10
418;DHT22;49;48.530;9.200;2024-02-23T10:14:28;12.70;4.50
418;DHT22;49;48.530;9.200;2024-02-23T10:16:56;13.10;5.70
418;DHT22;49;48.530;9.200;2024-02-23T10:19:24;13.40;3.40
418;DHT22;49;48.530;9.200;2024-02-23T10:21:55;12.90;5.10
418;DHT22;49;48.530;9.200;2024-02-23T10:24:22;13.00;3.70
418;DHT22;49;48.530;9.200;2024-02-23T10:26:51;13.00;2.70
418;DHT22;49;48.530;9.200;2024-02-23T10:29:39;12.80;2.10
418;DHT22;49;48.530;9.200;2024-02-23T10:32:07;12.90;2.90
418;DHT22;49;48.530;9.200;2024-02-23T10:34:37;13.20;2.80
418;DHT22;49;48.530;9.200;2024-02-23T10:37:06;13.30;1.60
418;DHT22;49;48.530;9.200;2024-02-23T10:39:42;13.10;2.60
418;DHT22;49;48.530;9.200;2024-02-23T10:42:12;13.20;2.30
418;DHT22;49;48.530;9.200;2024-02-23T10:44:44;13.60;2.60
418;DHT22;49;48.530;9.200;2024-02-23T10:47:12;13.90;3.30
418;DHT22;49;48.530;9.200;2024-02-23T10:49:39;13.80;1.20
418;DHT22;49;48.530;9.200;2024-02-23T10:52:11;13.80;2.10
418;DHT22;49;48.530;9.200;2024-02-23T10:54:40;13.60;1.10
418;DHT22;49;48.530;9.200;2024-02-23T10:57:08;13.50;1.70
418;DHT22;49;48.530;9.200;2024-02-23T10:59:38;13.00;3.80
418;DHT22;49;48.530;9.200;2024-02-23T11:02:08;13.00;3.20
418;DHT22;49;48.530;9.200;2024-02-23T11:04:36;13.10;3.10
418;DHT22;49;48.530;9.200;2024-02-23T11:07:03;13.40;2.70
418;DHT22;49;48.530;9.200;2024-02-23T11:09:41;13.20;3.50
418;DHT22;49;48.530;9.200;2024-02-23T11:12:08;12.90;3.10
418;DHT22;49;48.530;9.200;2024-02-23T11:14:36;12.40;3.10
418;DHT22;49;48.530;9.200;2024-02-23T11:17:04;12.50;3.20
418;DHT22;49;48.530;9.200;2024-02-23T11:19:39;13.20;3.30
418;DHT22;49;48.530;9.200;2024-02-23T11:22:10;12.70;2.00
418;DHT22;49;48.530;9.200;2024-02-23T11:24:43;13.00;5.50
418;DHT22;49;48.530;9.200;2024-02-23T11:27:14;13.10;2.90
418;DHT22;49;48.530;9.200;2024-02-23T11:29:44;13.10;2.80
418;DHT22;49;48.530;9.200;2024-02-23T11:32:13;13.20;2.80
418;DHT22;49;48.530;9.200;2024-02-23T11:34:42;13.10;4.00
418;DHT22;49;48.530;9.200;2024-02-23T11:37:10;13.40;3.60
418;DHT22;49;48.530;9.200;2024-02-23T11:39:37;13.70;3.30
418;DHT22;49;48.530;9.200;2024-02-23T11:42:06;13.50;4.40
418;DHT22;49;48.530;9.200;2024-02-23T11:44:33;13.10;8.40
418;DHT22;49;48.530;9.200;2024-02-23T11:47:00;13.20;7.10
418;DHT22;49;48.530;9.200;2024-02-23T11:49:29;13.20;5.90
418;DHT22;49;48.530;9.200;2024-02-23T11:51:58;13.60;6.10
418;DHT22;49;48.530;9.200;2024-02-23T11:54:26;13.40;6.50
418;DHT22;49;48.530;9.200;2024-02-23T11:56:53;13.10;6.20
418;DHT22;49;48.530;9.200;2024-02-23T11:59:20;12.80;6.80
418;DHT22;49;48.530;9.200;2024-02-23T12:01:49;12.90;6.90
418;DHT22;49;48.530;9.200;2024-02-23T12:04:17;13.20;6.00
418;DHT22;49;48.530;9.200;2024-02-23T12:06:44;13.00;7.60
418;DHT22;49;48.530;9.200;2024-02-23T12:09:13;13.10;7.00
418;DHT22;49;48.530;9.200;2024-02-23T12:11:41;13.10;7.20
418;DHT22;49;48.530;9.200;2024-02-23T12:14:09;13.50;6.80
418;DHT22;49;48.530;9.200;2024-02-23T12:16:37;13.10;6.10
418;DHT22;49;48.530;9.200;2024-02-23T12:19:08;13.20;6.60
418;DHT22;49;48.530;9.200;2024-02-23T12:21:36;13.80;5.80
418;DHT22;49;48.530;9.200;2024-02-23T12:24:04;13.70;5.50
418;DHT22;49;48.530;9.200;2024-02-23T12:26:36;13.20;6.30
418;DHT22;49;48.530;9.200;2024-02-23T12:29:13;13.60;7.40
418;DHT22;49;48.530;9.200;2024-02-23T12:31:43;13.80;6.00
418;DHT22;49;48.530;9.200;2024-02-23T12:34:11;13.70;5.00
418;DHT22;49;48.530;9.200;2024-02-23T12:36:39;13.70;6.50
418;DHT22;49;48.530;9.200;2024-02-23T12:39:06;14.00;5.30
418;DHT22;49;48.530;9.200;2024-02-23T12:41:36;13.80;6.10
418;DHT22;49;48.530;9.200;2024-02-23T12:44:04;13.90;7.60
418;DHT22;49;48.530;9.200;2024-02-23T12:46:31;14.20;4.00
418;DHT22;49;48.530;9.200;2024-02-23T12:48:58;14.10;4.80
418;DHT22;49;48.530;9.200;2024-02-23T12:51:26;13.80;5.80
418;DHT22;49;48.530;9.200;2024-02-23T12:53:53;13.80;6.70
418;DHT22;49;48.530;9.200;2024-02-23T12:56:22;13.90;5.10
418;DHT22;49;48.530;9.200;2024-02-23T12:58:53;14.40;4.70
418;DHT22;49;48.530;9.200;2024-02-23T13:01:22;14.90;3.80
418;DHT22;49;48.530;9.200;2024-02-23T13:03:52;15.00;2.90
418;DHT22;49;48.530;9.200;2024-02-23T13:06:19;14.70;4.30
418;DHT22;49;48.530;9.200;2024-02-23T13:08:47;14.40;3.20
418;DHT22;49;48.530;9.200;2024-02-23T13:11:14;14.20;4.80
418;DHT22;49;48.530;9.200;2024-02-23T13:13:42;14.00;6.90
418;DHT22;49;48.530;9.200;2024-02-23T13:16:11;13.80;4.30
418;DHT22;49;48.530;9.200;2024-02-23T13:18:40;13.50;7.30
418;DHT22;49;48.530;9.200;2024-02-23T13:21:07;13.20;7.10
418;DHT22;49;48.530;9.200;2024-02-23T13:23:34;13.40;5.90
418;DHT22;49;48.530;9.200;2024-02-23T13:26:02;13.50;7.90
418;DHT22;49;48.530;9.200;2024-02-23T13:28:29;13.90;5.30
418;DHT22;49;48.530;9.200;2024-02-23T13:30:56;14.20;4.10
418;DHT22;49;48.530;9.200;2024-02-23T13:33:24;13.90;4.20
418;DHT22;49;48.530;9.200;2024-02-23T13:35:52;14.50;7.70
418;DHT22;49;48.530;9.200;2024-02-23T13:38:20;14.70;3.10
418;DHT22;49;48.530;9.200;2024-02-23T13:40:47;14.60;3.60
418;DHT22;49;48.530;9.200;2024-02-23T13:43:14;14.50;3.20
418;DHT22;49;48.530;9.200;2024-02-23T13:45:49;14.40;3.60
418;DHT22;49;48.530;9.200;2024-02-23T13:48:17;14.70;3.00
418;DHT22;49;48.530;9.200;2024-02-23T13:50:46;15.00;3.20
418;DHT22;49;48.530;9.200;2024-02-23T13:53:14;15.10;5.50
418;DHT22;49;48.530;9.200;2024-02-23T13:55:41;15.00;2.30
418;DHT22;49;48.530;9.200;2024-02-23T13:58:10;14.60;2.70
418;DHT22;49;48.530;9.200;2024-02-23T14:00:37;14.40;3.40
418;DHT22;49;48.530;9.200;2024-02-23T14:03:04;14.60;5.70
418;DHT22;49;48.530;9.200;2024-02-23T14:05:31;14.70;5.10
418;DHT22;49;48.530;9.200;2024-02-23T14:08:00;14.70;6.10
418;DHT22;49;48.530;9.200;2024-02-23T14:10:27;14.80;2.50
418;DHT22;49;48.530;9.200;2024-02-23T14:12:54;14.60;1.80
418;DHT22;49;48.530;9.200;2024-02-23T14:15:21;14.10;4.60
418;DHT22;49;48.530;9.200;2024-02-23T14:17:48;13.90;3.40
418;DHT22;49;48.530;9.200;2024-02-23T14:20:15;14.30;4.20
418;DHT22;49;48.530;9.200;2024-02-23T14:22:42;14.30;3.70
418;DHT22;49;48.530;9.200;2024-02-23T14:25:11;14.30;3.30
418;DHT22;49;48.530;9.200;2024-02-23T14:27:38;14.40;3.80
418;DHT22;49;48.530;9.200;2024-02-23T14:30:08;14.10;4.70
418;DHT22;49;48.530;9.200;2024-02-23T14:32:34;14.40;4.50
418;DHT22;49;48.530;9.200;2024-02-23T14:35:02;14.20;2.50
418;DHT22;49;48.530;9.200;2024-02-23T14:37:29;13.90;5.40
418;DHT22;49;48.530;9.200;2024-02-23T14:39:56;14.00;7.70
418;DHT22;49;48.530;9.200;2024-02-23T14:42:24;14.30;3.90
418;DHT22;49;48.530;9.200;2024-02-23T14:44:52;14.40;2.20
418;DHT22;49;48.530;9.200;2024-02-23T14:47:19;14.00;4.00
418;DHT22;49;48.530;9.200;2024-02-23T14:49:47;14.20;5.80
418;DHT22;49;48.530;9.200;2024-02-23T14:52:15;14.50;4.80
418;DHT22;49;48.530;9.200;2024-02-23T14:54:42;14.90;2.40
418;DHT22;49;48.530;9.200;2024-02-23T14:57:10;15.50;6.80
418;DHT22;49;48.530;9.200;2024-02-23T14:59:38;15.50;3.40
418;DHT22;49;48.530;9.200;2024-02-23T15:02:18;15.10;4.10
418;DHT22;49;48.530;9.200;2024-02-23T15:04:45;14.60;3.60
418;DHT22;49;48.530;9.200;2024-02-23T15:07:13;14.60;4.50
418;DHT22;49;48.530;9.200;2024-02-23T15:09:41;14.60;3.80
418;DHT22;49;48.530;9.200;2024-02-23T15:12:08;15.00;5.10
418;DHT22;49;48.530;9.200;2024-02-23T15:14:37;15.00;6.20
418;DHT22;49;48.530;9.200;2024-02-23T15:17:05;14.40;3.00
418;DHT22;49;48.530;9.200;2024-02-23T15:19:33;14.40;2.90
418;DHT22;49;48.530;9.200;2024-02-23T15:22:00;14.40;3.00
418;DHT22;49;48.530;9.200;2024-02-23T15:24:28;14.40;2.60
418;DHT22;49;48.530;9.200;2024-02-23T15:26:55;14.80;2.70
418;DHT22;49;48.530;9.200;2024-02-23T15:29:22;15.10;2.10
418;DHT22;49;48.530;9.200;2024-02-23T15:31:51;14.80;1.00
418;DHT22;49;48.530;9.200;2024-02-23T15:34:18;14.50;3.10
418;DHT22;49;48.530;9.200;2024-02-23T15:36:47;14.90;5.20
418;DHT22;49;48.530;9.200;2024-02-23T15:39:14;15.10;2.10
418;DHT22;49;48.530;9.200;2024-02-23T15:41:41;14.70;1.00
418;DHT22;49;48.530;9.200;2024-02-23T15:44:08;14.80;4.20
418;DHT22;49;48.530;9.200;2024-02-23T15:46:35;14.90;1.70
418;DHT22;49;48.530;9.200;2024-02-23T15:49:04;15.00;1.10
418;DHT22;49;48.530;9.200;2024-02-23T15:51:31;14.70;6.00
418;DHT22;49;48.530;9.200;2024-02-23T15:53:59;14.40;1.50
418;DHT22;49;48.530;9.200;2024-02-23T15:56:27;14.30;1.60
418;DHT22;49;48.530;9.200;2024-02-23T15:58:53;14.50;5.70
418;DHT22;49;48.530;9.200;2024-02-23T16:01:20;14.80;2.80
418;DHT22;49;48.530;9.200;2024-02-23T16:03:48;15.10;2.20
418;DHT22;49;48.530;9.200;2024-02-23T16:06:18;14.50;2.40
418;DHT22;49;48.530;9.200;2024-02-23T16:08:46;13.90;3.50
418;DHT22;49;48.530;9.200;2024-02-23T16:11:14;13.90;2.90
418;DHT22;49;48.530;9.200;2024-02-23T16:13:40;14.40;3.80
418;DHT22;49;48.530;9.200;2024-02-23T16:16:08;14.70;3.00
418;DHT22;49;48.530;9.200;2024-02-23T16:18:36;14.40;2.50
418;DHT22;49;48.530;9.200;2024-02-23T16:21:04;14.30;2.80
418;DHT22;49;48.530;9.200;2024-02-23T16:23:35;14.60;3.50
418;DHT22;49;48.530;9.200;2024-02-23T16:26:04;15.00;2.90
418;DHT22;49;48.530;9.200;2024-02-23T16:28:31;15.20;2.00
418;DHT22;49;48.530;9.200;2024-02-23T16:30:59;15.10;1.00
418;DHT22;49;48.530;9.200;2024-02-23T16:33:26;15.20;1.30
418;DHT22;49;48.530;9.200;2024-02-23T16:35:53;15.20;1.00
418;DHT22;49;48.530;9.200;2024-02-23T16:38:21;15.40;1.70
418;DHT22;49;48.530;9.200;2024-02-23T16:40:50;15.30;6.00
418;DHT22;49;48.530;9.200;2024-02-23T16:43:19;15.20;1.20
418;DHT22;49;48.530;9.200;2024-02-23T16:45:46;15.00;2.10
418;DHT22;49;48.530;9.200;2024-02-23T16:48:15;15.10;3.80
418;DHT22;49;48.530;9.200;2024-02-23T16:50:42;15.20;5.80
418;DHT22;49;48.530;9.200;2024-02-23T16:53:11;15.00;1.80
418;DHT22;49;48.530;9.200;2024-02-23T16:55:39;14.90;2.00
418;DHT22;49;48.530;9.200;2024-02-23T16:58:08;14.40;3.30
418;DHT22;49;48.530;9.200;2024-02-23T17:00:35;14.20;1.80
418;DHT22;49;48.530;9.200;2024-02-23T17:03:02;14.40;6.70
418;DHT22;49;48.530;9.200;2024-02-23T17:05:29;14.50;5.20
418;DHT22;49;48.530;9.200;2024-02-23T17:07:56;14.50;4.60
418;DHT22;49;48.530;9.200;2024-02-23T17:10:23;14.30;5.40
418;DHT22;49;48.530;9.200;2024-02-23T17:12:50;14.00;4.30
418;DHT22;49;48.530;9.200;2024-02-23T17:15:20;13.90;3.10
418;DHT22;49;48.530;9.200;2024-02-23T17:17:47;13.90;4.30
418;DHT22;49;48.530;9.200;2024-02-23T17:20:14;13.90;7.60
418;DHT22;49;48.530;9.200;2024-02-23T17:22:43;13.50;5.60
418;DHT22;49;48.530;9.200;2024-02-23T17:25:10;13.70;3.80
418;DHT22;49;48.530;9.200;2024-02-23T17:27:37;13.40;3.20